Minburn, Iowa
Current Conditions -  °F | °C
As of 2:55 AM on Monday 22 Dec 2014 (Local Time) from KPRO Reporting Station
Haze Haze  
Wind Chill: 33°   Ceiling: 700
Heat Index: 41°   Visibility: 5mi
Dew Point: 40°   Wind: 14mph
Humidity: 98%   Direction: 160°SSE
Pressure: 29.66"   Gusts: NA
Location:  41.76°N, 94.03°W
Report Text: KPRO 220855Z AUTO 16012KT 5SM BR OVC007 05/05 A2966 RMK AO2 T00480045
Loading
Personal Weather Stations






























Interactive Weather Map New forecast layout! Learn more

10-Day Weather Forecast

Advertisements
Track Severe Weather on mobile